Time;durP1;ratioP1;P1;durP2;ratioP2;P2;SDS_P1;SDS_P2;PMS_P1;PMS_P2;Temp;Humidity;BMP_temperature;BMP_pressure;BME280_temperature;BME280_humidity;BME280_pressure;Samples;Min_cycle;Max_cycle;Signal;HPM_P1;HPM_P2
2022/01/19 00:00:50;;;;;;;11.50;7.13;;;;;;;-1.02;82.78;101131.53;4969472;28;20501;-79
2022/01/19 00:03:18;;;;;;;8.02;7.20;;;;;;;-1.00;82.58;101130.69;4970714;28;20263;-78
2022/01/19 00:05:51;;;;;;;7.05;6.28;;;;;;;-0.99;82.64;101121.22;4968788;28;20208;-79
2022/01/19 00:08:32;;;;;;;9.23;6.05;;;;;;;-0.98;82.44;101110.03;4969914;28;20220;-79
2022/01/19 00:11:00;;;;;;;8.43;5.85;;;;;;;-0.97;82.42;101086.00;4972163;28;20219;-78
2022/01/19 00:13:39;;;;;;;9.27;5.40;;;;;;;-0.95;82.67;101079.13;4969155;28;20192;-79
2022/01/19 00:16:09;;;;;;;9.70;7.03;;;;;;;-0.98;82.32;101061.91;4966110;28;20537;-78
2022/01/19 00:18:37;;;;;;;8.07;6.25;;;;;;;-1.00;82.70;101052.44;4970454;28;20244;-78
2022/01/19 00:21:05;;;;;;;9.45;7.93;;;;;;;-1.08;82.62;101051.50;4970466;28;20259;-79
2022/01/19 00:23:39;;;;;;;12.48;7.15;;;;;;;-1.09;82.53;101057.53;4970674;28;20582;-79
2022/01/19 00:26:09;;;;;;;7.57;6.82;;;;;;;-1.15;82.37;101066.94;4971379;28;20200;-79
2022/01/19 00:28:35;;;;;;;11.27;6.32;;;;;;;-1.18;82.60;101064.34;4969994;28;20232;-79
2022/01/19 00:31:03;;;;;;;9.23;6.60;;;;;;;-1.19;82.48;101075.53;4970232;28;20205;-79
2022/01/19 00:33:31;;;;;;;8.63;7.05;;;;;;;-1.20;82.92;101068.63;4985213;28;20551;-79
2022/01/19 00:35:59;;;;;;;9.30;6.47;;;;;;;-1.19;82.68;101067.78;4968996;28;20215;-79
2022/01/19 00:38:26;;;;;;;8.73;6.77;;;;;;;-1.18;82.72;101069.50;4984943;28;20227;-79
2022/01/19 00:41:01;;;;;;;10.68;6.10;;;;;;;-1.18;82.62;101072.09;4971011;28;20217;-78
2022/01/19 00:43:37;;;;;;;10.88;8.10;;;;;;;-1.22;82.50;101061.72;4969234;28;20236;-79
2022/01/19 00:46:14;;;;;;;7.00;6.30;;;;;;;-1.25;82.76;101051.38;4969828;28;20196;-79
2022/01/19 00:48:43;;;;;;;13.10;7.07;;;;;;;-1.29;82.78;101047.09;4970534;28;20223;-79
2022/01/19 00:51:25;;;;;;;7.78;6.32;;;;;;;-1.31;82.86;101041.91;4970344;28;20232;-79
2022/01/19 00:54:06;;;;;;;9.93;7.25;;;;;;;-1.31;82.89;101043.63;4968355;28;20228;-79
2022/01/19 00:56:34;;;;;;;9.15;7.90;;;;;;;-1.31;82.74;101041.91;4965792;28;20357;-79
2022/01/19 00:59:11;;;;;;;7.72;6.78;;;;;;;-1.30;82.88;101037.59;4985457;28;20707;-79
2022/01/19 01:01:43;;;;;;;10.30;7.88;;;;;;;-1.32;82.94;101040.19;4969374;28;20204;-79
2022/01/19 01:04:19;;;;;;;14.27;8.45;;;;;;;-1.33;82.75;101048.75;4952240;28;20232;-79
2022/01/19 01:06:53;;;;;;;9.32;7.13;;;;;;;-1.35;82.94;101040.13;4983264;28;20212;-79
2022/01/19 01:10:00;;;;;;;9.40;7.38;;;;;;;-1.36;82.53;101033.25;4969824;28;20212;-78
2022/01/19 01:12:42;;;;;;;10.25;6.80;;;;;;;-1.38;82.78;101029.81;4966368;28;20212;-79
2022/01/19 01:15:27;;;;;;;8.95;5.75;;;;;;;-1.37;82.81;101021.25;4983171;28;20274;-79
2022/01/19 01:20:39;;;;;;;7.75;6.85;;;;;;;-1.34;82.70;101005.78;5005260;23;20208;-75
2022/01/19 01:23:06;;;;;;;9.20;5.88;;;;;;;-1.34;82.80;100996.34;4977699;28;21365;-75
2022/01/19 01:25:32;;;;;;;11.00;6.78;;;;;;;-1.35;82.80;100994.63;4978278;28;20211;-77
2022/01/19 01:27:57;;;;;;;8.53;6.20;;;;;;;-1.38;82.53;100986.00;4985939;28;20910;-76
2022/01/19 01:30:23;;;;;;;7.23;6.03;;;;;;;-1.43;82.49;100993.72;4985480;28;20501;-75
2022/01/19 01:32:48;;;;;;;6.83;6.13;;;;;;;-1.52;82.81;100996.19;4987518;28;20204;-75
2022/01/19 01:35:14;;;;;;;6.27;5.57;;;;;;;-1.59;82.67;101007.31;4987605;28;20701;-76
2022/01/19 01:37:40;;;;;;;6.47;5.75;;;;;;;-1.66;83.18;101021.84;5004356;28;20234;-75
2022/01/19 01:40:08;;;;;;;8.10;6.60;;;;;;;-1.72;83.18;101014.06;4990657;28;20289;-76
2022/01/19 01:42:35;;;;;;;6.30;5.20;;;;;;;-1.77;83.21;101023.47;5006382;28;20876;-75
2022/01/19 01:45:02;;;;;;;7.32;6.05;;;;;;;-1.82;82.92;101013.13;4991362;28;20206;-77
2022/01/19 01:47:30;;;;;;;9.10;5.72;;;;;;;-1.86;83.61;101015.66;4990082;28;20229;-77
2022/01/19 01:55:15;;;;;;;7.57;5.65;;;;;;;-1.88;83.21;101000.19;5006236;28;20202;-75
2022/01/19 01:57:41;;;;;;;6.38;5.45;;;;;;;-1.86;83.37;100989.91;4990724;28;20923;-75
2022/01/19 02:00:12;;;;;;;7.80;5.18;;;;;;;-1.83;83.29;100984.78;5005436;28;20213;-75
2022/01/19 02:02:45;;;;;;;9.30;4.82;;;;;;;-1.83;83.43;100977.91;5006981;28;20313;-75
2022/01/19 02:05:14;;;;;;;8.05;5.53;;;;;;;-1.81;83.22;100978.81;5006026;28;20580;-75
2022/01/19 02:08:07;;;;;;;7.00;5.28;;;;;;;-1.80;83.14;100969.34;5005483;28;20215;-75
2022/01/19 02:10:57;;;;;;;8.45;5.70;;;;;;;-1.84;83.24;100968.44;4988211;28;20222;-77
2022/01/19 02:16:20;;;;;;;5.60;4.60;;;;;;;-1.87;83.18;100954.69;5007051;28;20227;-75
2022/01/19 02:21:38;;;;;;;8.98;5.05;;;;;;;-1.88;83.31;100940.97;5005506;28;20274;-75
2022/01/19 02:24:06;;;;;;;5.45;4.95;;;;;;;-1.91;83.13;100937.50;5005199;28;20330;-77
2022/01/19 02:27:00;;;;;;;6.00;5.40;;;;;;;-1.93;83.07;100923.75;5006520;28;20203;-75
2022/01/19 02:42:40;;;;;;;9.98;5.40;;;;;;;-1.94;83.09;100906.56;5005499;28;20223;-75
2022/01/19 02:50:18;;;;;;;6.68;5.15;;;;;;;-1.93;82.97;100895.41;5006782;28;20218;-76
2022/01/19 02:52:43;;;;;;;6.60;5.10;;;;;;;-1.96;83.06;100890.25;5006099;28;20194;-75
2022/01/19 02:55:09;;;;;;;5.37;4.87;;;;;;;-2.02;82.96;100886.78;4990168;28;20725;-75
2022/01/19 02:57:36;;;;;;;7.70;5.30;;;;;;;-2.04;83.05;100883.31;4989472;28;20198;-76
2022/01/19 03:08:47;;;;;;;8.95;5.20;;;;;;;-2.18;83.18;100874.63;4994072;28;20203;-75
2022/01/19 03:11:19;;;;;;;6.68;5.03;;;;;;;-2.17;83.26;100868.59;5004705;28;20583;-75
2022/01/19 03:13:46;;;;;;;5.65;4.75;;;;;;;-2.14;83.00;100866.06;4987944;28;20679;-75
2022/01/19 03:16:13;;;;;;;7.03;5.63;;;;;;;-2.15;82.84;100864.34;4988893;28;20217;-75
2022/01/19 03:18:39;;;;;;;7.50;5.15;;;;;;;-2.15;83.06;100853.19;4989089;28;20206;-76
2022/01/19 03:21:06;;;;;;;7.30;5.23;;;;;;;-2.15;83.05;100860.91;4988703;28;20245;-76
2022/01/19 03:23:31;;;;;;;7.05;4.78;;;;;;;-2.18;82.89;100859.19;5002134;28;20219;-76
2022/01/19 03:25:58;;;;;;;7.90;4.90;;;;;;;-2.19;82.80;100856.56;5004935;28;20253;-75
2022/01/19 03:28:24;;;;;;;9.63;5.72;;;;;;;-2.23;82.89;100858.28;4989697;28;20205;-76
2022/01/19 03:30:50;;;;;;;7.30;6.20;;;;;;;-2.28;82.92;100847.94;5006145;28;20210;-76
2022/01/19 03:33:15;;;;;;;9.50;5.80;;;;;;;-2.30;82.87;100848.75;5005243;28;20616;-75
2022/01/19 03:35:41;;;;;;;8.70;5.67;;;;;;;-2.33;82.77;100848.75;5006664;28;20321;-75
2022/01/19 03:38:08;;;;;;;14.30;5.70;;;;;;;-2.36;82.92;100848.72;4989464;28;20454;-76
2022/01/19 03:40:34;;;;;;;9.80;5.80;;;;;;;-2.36;82.96;100846.16;5004396;28;20219;-76
2022/01/19 03:43:00;;;;;;;6.20;5.60;;;;;;;-2.35;83.08;100847.84;5005407;28;20318;-75
2022/01/19 03:45:51;;;;;;;8.63;6.05;;;;;;;-2.34;82.75;100841.88;4988840;28;20202;-75
2022/01/19 03:50:46;;;;;;;6.43;5.55;;;;;;;-2.36;82.71;100838.44;5005032;28;20211;-76
2022/01/19 03:53:12;;;;;;;6.90;5.30;;;;;;;-2.38;82.71;100835.81;5005348;28;20203;-75
2022/01/19 03:55:37;;;;;;;7.40;5.10;;;;;;;-2.40;82.48;100827.25;4990819;28;20679;-76
2022/01/19 03:58:03;;;;;;;11.83;6.63;;;;;;;-2.41;82.74;100822.09;4988931;28;20288;-75
2022/01/19 04:00:31;;;;;;;10.40;5.57;;;;;;;-2.45;82.83;100819.50;4990541;28;20605;-76
2022/01/19 04:02:57;;;;;;;7.05;6.22;;;;;;;-2.49;82.73;100817.72;4991419;28;20302;-75
2022/01/19 04:05:38;;;;;;;9.40;6.03;;;;;;;-2.50;82.86;100817.72;4972903;28;20232;-75
2022/01/19 04:08:04;;;;;;;8.98;5.53;;;;;;;-2.52;82.98;100816.84;4992823;28;20219;-76
2022/01/19 04:10:30;;;;;;;5.55;5.00;;;;;;;-2.50;82.91;100810.88;4981088;28;20231;-76
2022/01/19 04:13:08;;;;;;;6.73;4.77;;;;;;;-2.49;82.70;100799.72;4992063;28;20266;-77
2022/01/19 04:15:36;;;;;;;7.20;4.80;;;;;;;-2.47;82.60;100799.75;4979908;28;20676;-76
2022/01/19 04:18:02;;;;;;;9.00;5.35;;;;;;;-2.46;82.83;100802.34;4978044;28;20207;-77
2022/01/19 04:20:28;;;;;;;10.27;5.75;;;;;;;-2.45;82.79;100795.47;4961973;28;20764;-75
2022/01/19 04:22:57;;;;;;;7.63;4.50;;;;;;;-2.44;82.53;100799.75;4976156;28;20227;-75
2022/01/19 04:25:23;;;;;;;4.57;4.10;;;;;;;-2.47;82.57;100800.59;4975256;28;20584;-76
2022/01/19 04:27:48;;;;;;;10.40;5.30;;;;;;;-2.48;82.29;100798.88;4974992;28;20294;-75
2022/01/19 04:30:15;;;;;;;6.50;5.57;;;;;;;-2.48;82.77;100804.03;4975769;28;20294;-75
2022/01/19 04:35:24;;;;;;;7.05;5.20;;;;;;;-2.34;82.56;100809.28;4968838;28;21006;-75
2022/01/19 04:38:25;;;;;;;13.77;6.28;;;;;;;-2.34;82.87;100803.28;4992667;28;20648;-77
2022/01/19 04:54:53;;;;;;;5.57;4.85;;;;;;;-2.43;82.02;100806.66;4976918;28;20196;-75
2022/01/19 05:03:25;;;;;;;4.70;4.03;;;;;;;-2.53;82.26;100803.13;4976924;28;20225;-75
2022/01/19 05:06:18;;;;;;;6.15;3.95;;;;;;;-2.56;82.18;100812.53;4979913;28;20216;-76
2022/01/19 05:08:57;;;;;;;5.40;4.90;;;;;;;-2.60;82.41;100816.75;4981917;28;20290;-76
2022/01/19 05:14:10;;;;;;;7.82;5.57;;;;;;;-2.72;82.59;100812.38;4980768;28;20203;-75
2022/01/19 05:16:36;;;;;;;10.73;6.80;;;;;;;-2.74;82.59;100808.06;4980535;28;20204;-75
2022/01/19 05:19:01;;;;;;;15.70;7.23;;;;;;;-2.75;82.74;100804.63;4981654;28;20592;-75
2022/01/19 05:21:28;;;;;;;9.80;6.97;;;;;;;-2.76;82.77;100797.75;4983920;28;20334;-75
2022/01/19 05:24:04;;;;;;;27.88;14.55;;;;;;;-2.81;82.98;100791.69;4998780;28;20251;-75
2022/01/19 05:26:31;;;;;;;24.88;12.95;;;;;;;-2.82;83.06;100789.13;4989012;28;20636;-75
2022/01/19 05:28:57;;;;;;;17.20;9.20;;;;;;;-2.82;83.34;100784.84;4988756;28;20264;-75
2022/01/19 05:31:23;;;;;;;13.00;7.97;;;;;;;-2.81;82.97;100788.28;4996301;28;20301;-76
2022/01/19 05:33:48;;;;;;;13.32;8.77;;;;;;;-2.82;83.22;100783.97;5000305;28;20956;-75
2022/01/19 05:36:14;;;;;;;17.43;7.90;;;;;;;-2.81;83.11;100786.56;4980584;28;20202;-76
2022/01/19 05:39:06;;;;;;;11.95;7.28;;;;;;;-2.80;83.38;100792.59;4990820;28;20215;-76
2022/01/19 05:41:52;;;;;;;9.27;5.93;;;;;;;-2.78;83.33;100799.47;4980022;28;20219;-75
2022/01/19 05:44:18;;;;;;;9.98;5.97;;;;;;;-2.80;83.15;100785.72;4998559;28;20211;-76
2022/01/19 05:46:47;;;;;;;8.73;6.33;;;;;;;-2.79;83.21;100784.88;4999123;28;20203;-76
2022/01/19 05:49:14;;;;;;;11.73;6.95;;;;;;;-2.79;83.17;100784.00;4980412;28;20301;-76
2022/01/19 05:51:39;;;;;;;12.13;8.57;;;;;;;-2.81;83.06;100781.41;4984012;28;20220;-76
2022/01/19 05:54:06;;;;;;;16.53;14.30;;;;;;;-2.81;83.28;100788.28;4997505;28;21483;-75
2022/01/19 05:56:32;;;;;;;20.80;12.85;;;;;;;-2.82;83.33;100789.13;4980703;28;20203;-75
2022/01/19 05:59:33;;;;;;;14.18;8.88;;;;;;;-2.81;83.18;100791.69;4991337;28;20211;-75
2022/01/19 06:01:59;;;;;;;11.27;8.93;;;;;;;-2.72;83.56;100798.66;4996746;28;20478;-75
2022/01/19 06:04:24;;;;;;;10.17;8.63;;;;;;;-2.72;82.97;100799.53;4988854;28;20674;-76
2022/01/19 06:07:05;;;;;;;13.23;9.48;;;;;;;-2.74;82.95;100780.63;4997035;28;20587;-75
2022/01/19 06:09:49;;;;;;;18.15;11.55;;;;;;;-2.75;83.05;100786.63;4981901;28;20346;-76
2022/01/19 06:12:16;;;;;;;14.15;9.50;;;;;;;-2.79;82.77;100784.88;4987197;28;20699;-75
2022/01/19 06:14:44;;;;;;;18.65;10.52;;;;;;;-2.81;83.13;100775.41;4996187;28;20222;-77
2022/01/19 06:17:12;;;;;;;16.27;11.63;;;;;;;-2.85;83.27;100777.09;4997037;28;20204;-75
2022/01/19 06:19:39;;;;;;;20.88;10.60;;;;;;;-2.89;83.21;100767.63;4976529;28;20302;-76
2022/01/19 06:22:06;;;;;;;19.00;13.32;;;;;;;-2.91;83.27;100765.06;4979089;28;20257;-76
2022/01/19 06:24:32;;;;;;;20.60;12.43;;;;;;;-2.91;83.51;100759.06;4995239;28;20318;-76
2022/01/19 06:26:58;;;;;;;8.57;7.77;;;;;;;-2.92;83.25;100754.75;4985648;28;20579;-75
2022/01/19 06:29:23;;;;;;;7.17;6.47;;;;;;;-2.95;83.24;100757.28;4988236;28;20671;-75
2022/01/19 06:31:49;;;;;;;9.37;7.70;;;;;;;-2.91;83.64;100756.47;4993089;28;20488;-76
2022/01/19 06:34:15;;;;;;;6.93;5.97;;;;;;;-2.93;83.56;100756.47;4997666;28;20833;-76
2022/01/19 06:37:01;;;;;;;10.15;6.13;;;;;;;-2.93;83.67;100756.47;4996823;28;20215;-76
2022/01/19 06:39:34;;;;;;;12.45;6.65;;;;;;;-2.91;83.60;100752.19;4995523;28;20199;-77
2022/01/19 06:42:07;;;;;;;12.82;8.30;;;;;;;-2.93;83.26;100745.31;4981911;28;20222;-75
2022/01/19 06:44:33;;;;;;;9.17;7.97;;;;;;;-2.95;83.52;100759.84;4995193;28;20227;-75
2022/01/19 06:46:58;;;;;;;11.47;8.63;;;;;;;-2.97;83.61;100746.13;4993359;28;20203;-76
2022/01/19 06:49:24;;;;;;;9.90;8.27;;;;;;;-2.96;83.61;100758.16;4984170;28;20206;-75
2022/01/19 06:51:50;;;;;;;13.65;9.85;;;;;;;-2.95;83.50;100758.16;4977555;28;20375;-76
2022/01/19 06:54:16;;;;;;;14.40;9.73;;;;;;;-2.93;83.38;100751.31;4979269;28;21251;-76
2022/01/19 06:56:41;;;;;;;14.67;10.13;;;;;;;-2.93;83.37;100750.47;4985816;28;20210;-76
2022/01/19 06:59:23;;;;;;;11.60;9.68;;;;;;;-2.96;83.40;100751.28;4987003;28;20255;-76
2022/01/19 07:02:09;;;;;;;16.20;9.60;;;;;;;-2.96;83.59;100748.72;4996699;28;20242;-76
2022/01/19 07:04:50;;;;;;;13.35;9.32;;;;;;;-2.95;83.45;100757.28;4979839;28;20203;-76
2022/01/19 07:07:41;;;;;;;13.48;9.32;;;;;;;-2.94;83.61;100752.19;4992973;28;20902;-77
2022/01/19 07:10:08;;;;;;;10.73;7.40;;;;;;;-2.91;83.30;100746.19;4997152;28;20203;-76
2022/01/19 07:12:36;;;;;;;9.00;6.90;;;;;;;-2.92;83.38;100747.91;4997712;28;20561;-79
2022/01/19 07:15:05;;;;;;;11.43;8.25;;;;;;;-2.92;83.39;100735.06;4986114;28;20218;-76
2022/01/19 07:17:37;;;;;;;9.15;8.25;;;;;;;-2.91;83.25;100738.50;4979205;28;20199;-76
2022/01/19 07:20:07;;;;;;;15.82;8.80;;;;;;;-2.90;83.04;100740.19;4983365;28;20205;-78
2022/01/19 07:22:33;;;;;;;8.43;7.72;;;;;;;-2.91;83.14;100738.50;4979047;28;20250;-75
2022/01/19 07:25:03;;;;;;;9.75;7.30;;;;;;;-2.91;82.95;100739.34;4972588;28;20262;-74
2022/01/19 07:27:37;;;;;;;12.98;8.95;;;;;;;-2.91;83.39;100744.50;4981678;28;20214;-75
2022/01/19 07:30:05;;;;;;;9.10;8.02;;;;;;;-2.90;83.45;100738.47;4981948;28;20277;-74
2022/01/19 07:32:34;;;;;;;14.57;9.55;;;;;;;-2.87;83.10;100734.22;4980783;28;20238;-73
2022/01/19 07:35:04;;;;;;;17.80;14.10;;;;;;;-2.86;83.12;100734.25;4989394;28;20259;-75
2022/01/19 07:37:30;;;;;;;18.50;13.10;;;;;;;-2.89;83.51;100739.34;4986948;28;20270;-75
2022/01/19 07:39:57;;;;;;;19.50;16.70;;;;;;;-2.91;83.38;100735.91;4976037;28;20661;-75
2022/01/19 07:42:24;;;;;;;26.27;18.00;;;;;;;-2.90;83.22;100747.91;4980928;28;20281;-75
2022/01/19 07:45:12;;;;;;;31.10;17.65;;;;;;;-2.88;83.36;100746.22;4968341;28;20215;-75
2022/01/19 07:47:57;;;;;;;13.40;9.23;;;;;;;-2.85;83.48;100747.97;4989396;28;20233;-75
2022/01/19 07:50:43;;;;;;;15.80;10.70;;;;;;;-2.85;83.39;100737.69;4988283;28;20235;-75
2022/01/19 07:53:29;;;;;;;10.38;8.00;;;;;;;-2.83;83.46;100738.56;4985998;28;20739;-75
2022/01/19 07:56:22;;;;;;;14.13;10.07;;;;;;;-2.77;83.23;100741.19;4986234;28;20199;-75
2022/01/19 07:59:07;;;;;;;10.55;9.20;;;;;;;-2.71;83.18;100748.94;4992181;28;20233;-74
2022/01/19 08:01:49;;;;;;;17.80;13.70;;;;;;;-2.59;83.61;100754.19;4990660;28;20488;-74
2022/01/19 08:04:44;;;;;;;20.70;12.73;;;;;;;-2.54;83.27;100756.78;4947064;28;20233;-74
2022/01/19 08:07:13;;;;;;;18.02;13.40;;;;;;;-2.50;83.18;100753.41;4985477;28;20265;-74
2022/01/19 08:09:40;;;;;;;14.30;12.10;;;;;;;-2.47;83.16;100761.16;4978190;28;20211;-74
2022/01/19 08:12:07;;;;;;;22.25;14.13;;;;;;;-2.45;83.17;100757.75;4982132;28;20231;-74
2022/01/19 08:14:33;;;;;;;29.88;18.20;;;;;;;-2.40;82.91;100752.63;4983146;28;20196;-74
2022/01/19 08:16:59;;;;;;;21.33;15.33;;;;;;;-2.38;82.87;100748.34;4980161;28;20447;-74
2022/01/19 08:19:29;;;;;;;23.88;14.32;;;;;;;-2.35;82.98;100748.41;4999196;28;20446;-74
2022/01/19 08:21:54;;;;;;;22.80;13.13;;;;;;;-2.30;82.88;100749.25;4979240;28;20334;-74
2022/01/19 08:24:20;;;;;;;24.93;14.97;;;;;;;-2.23;82.91;100756.19;4990721;28;20227;-75
2022/01/19 08:26:48;;;;;;;23.90;15.38;;;;;;;-2.17;82.72;100745.06;4984727;28;20260;-74
2022/01/19 08:29:18;;;;;;;16.83;12.40;;;;;;;-2.10;82.87;100746.84;4990882;28;20878;-74
2022/01/19 08:31:44;;;;;;;20.40;16.08;;;;;;;-1.99;82.94;100746.03;4989231;28;20601;-74
2022/01/19 08:34:10;;;;;;;22.37;12.80;;;;;;;-1.97;82.62;100754.63;4999071;28;20294;-74
2022/01/19 08:36:54;;;;;;;18.55;12.05;;;;;;;-1.97;82.65;100752.03;5000833;28;20214;-74
2022/01/19 08:39:32;;;;;;;14.98;11.63;;;;;;;-1.93;82.82;100759.81;4973911;28;20198;-74
2022/01/19 08:41:57;;;;;;;14.20;9.30;;;;;;;-1.90;82.82;100756.38;4993923;28;20231;-74
2022/01/19 08:44:23;;;;;;;16.17;10.00;;;;;;;-1.86;82.92;100750.41;4979500;28;20297;-74
2022/01/19 08:46:55;;;;;;;13.27;10.65;;;;;;;-1.80;82.85;100753.00;4985677;28;21112;-74
2022/01/19 08:49:26;;;;;;;12.57;9.40;;;;;;;-1.72;82.82;100760.78;4990546;28;20704;-75
2022/01/19 08:52:21;;;;;;;13.93;9.40;;;;;;;-1.64;82.59;100754.81;4987127;28;20309;-75
2022/01/19 08:54:56;;;;;;;16.52;9.70;;;;;;;-1.54;82.44;100749.69;4976837;28;20583;-75
2022/01/19 08:57:24;;;;;;;13.10;7.43;;;;;;;-1.44;82.63;100752.31;4989156;28;20694;-75
2022/01/19 08:59:49;;;;;;;10.70;7.97;;;;;;;-0.79;82.90;100745.56;4985253;28;20208;-75
2022/01/19 09:02:15;;;;;;;6.90;6.30;;;;;;;0.54;80.41;100739.34;4996535;28;20265;-75
2022/01/19 09:04:40;;;;;;;7.67;6.20;;;;;;;2.12;76.64;100743.31;4992654;28;20277;-75
2022/01/19 09:07:06;;;;;;;8.23;6.03;;;;;;;3.72;72.81;100728.91;4996710;28;20210;-75
2022/01/19 09:09:31;;;;;;;9.43;6.30;;;;;;;5.10;69.04;100718.31;5001512;28;20215;-75
2022/01/19 09:11:57;;;;;;;11.53;6.53;;;;;;;6.32;65.61;100721.31;4990024;28;20334;-75
2022/01/19 09:14:22;;;;;;;10.10;7.40;;;;;;;7.37;62.57;100712.88;4989297;28;20200;-75
2022/01/19 09:16:49;;;;;;;7.77;6.47;;;;;;;8.33;60.02;100711.31;4988891;28;20212;-75
2022/01/19 09:19:16;;;;;;;7.65;6.78;;;;;;;9.17;57.51;100705.47;4989436;28;20782;-75
2022/01/19 09:21:42;;;;;;;9.82;7.55;;;;;;;9.77;55.96;100699.53;5001433;28;20250;-75
2022/01/19 09:24:10;;;;;;;9.83;8.23;;;;;;;10.29;54.43;100708.63;4994477;28;20233;-75
2022/01/19 09:26:36;;;;;;;15.20;10.60;;;;;;;10.65;52.22;100705.25;4990144;28;20210;-75
2022/01/19 09:29:03;;;;;;;9.65;8.57;;;;;;;10.66;51.40;100713.97;4988398;28;20242;-75
2022/01/19 09:31:29;;;;;;;11.18;9.50;;;;;;;11.02;49.05;100714.03;4984969;28;20543;-75
2022/01/19 09:34:05;;;;;;;10.07;8.27;;;;;;;10.57;48.71;100715.25;4981406;28;20219;-75
2022/01/19 09:36:33;;;;;;;11.48;9.23;;;;;;;10.00;49.82;100711.66;5005355;28;20509;-75
2022/01/19 09:38:59;;;;;;;13.13;11.05;;;;;;;9.66;51.11;100719.19;5003127;28;20217;-74
2022/01/19 09:41:25;;;;;;;15.27;11.85;;;;;;;9.17;52.38;100715.13;5004750;28;20231;-75
2022/01/19 09:43:51;;;;;;;17.80;13.20;;;;;;;8.44;54.35;100727.50;5001227;28;20234;-75
2022/01/19 09:46:17;;;;;;;14.93;13.17;;;;;;;7.54;56.44;100726.28;5001498;28;20202;-75
2022/01/19 09:48:42;;;;;;;18.63;14.90;;;;;;;6.56;59.43;100719.75;5001056;28;20472;-75
2022/01/19 09:51:08;;;;;;;20.00;14.37;;;;;;;5.75;61.79;100735.84;5002366;28;20484;-74
2022/01/19 09:53:33;;;;;;;21.13;16.13;;;;;;;5.20;63.83;100731.97;4987169;28;20205;-74
2022/01/19 09:55:59;;;;;;;21.17;15.03;;;;;;;4.90;64.94;100740.50;5002969;28;21430;-74
2022/01/19 09:58:25;;;;;;;27.93;17.27;;;;;;;4.61;65.87;100745.41;5004130;28;20195;-75
2022/01/19 10:00:53;;;;;;;30.13;17.27;;;;;;;4.37;66.92;100748.53;5004521;28;20210;-75
2022/01/19 10:03:24;;;;;;;25.38;16.02;;;;;;;4.77;66.22;100747.72;5004762;28;20223;-74
2022/01/19 10:05:53;;;;;;;25.63;18.17;;;;;;;5.39;64.33;100750.63;5002254;28;20207;-74
2022/01/19 10:08:37;;;;;;;26.38;16.85;;;;;;;5.97;62.63;100744.00;5003157;28;20670;-74
2022/01/19 10:11:13;;;;;;;22.98;16.17;;;;;;;6.29;61.29;100739.66;5003689;28;20308;-74
2022/01/19 10:17:01;;;;;;;20.83;12.80;;;;;;;6.10;61.09;100725.38;5006841;28;20729;-75
2022/01/19 10:19:41;;;;;;;17.90;13.57;;;;;;;5.66;62.36;100717.81;5004722;28;20664;-74
2022/01/19 10:22:10;;;;;;;25.00;13.70;;;;;;;5.21;63.81;100728.50;5009687;28;20274;-75
2022/01/19 10:24:39;;;;;;;27.92;14.85;;;;;;;4.77;65.63;100727.72;5008242;28;21226;-74
2022/01/19 10:27:42;;;;;;;23.10;14.30;;;;;;;4.41;67.15;100742.38;5008430;28;20222;-75
2022/01/19 10:30:08;;;;;;;20.70;13.95;;;;;;;4.04;68.55;100742.22;5011881;28;22585;-75
2022/01/19 10:32:41;;;;;;;25.43;14.63;;;;;;;3.79;69.66;100739.22;5006683;28;20226;-74
2022/01/19 10:35:18;;;;;;;23.50;13.65;;;;;;;3.67;70.69;100732.47;5006536;28;20199;-74
2022/01/19 10:37:45;;;;;;;18.85;12.40;;;;;;;3.57;71.09;100728.34;5006732;28;20202;-75
2022/01/19 10:40:19;;;;;;;26.05;16.02;;;;;;;3.49;71.54;100721.53;5006454;28;20207;-74
2022/01/19 10:42:46;;;;;;;22.88;13.00;;;;;;;3.41;72.24;100725.16;5010689;28;20215;-74
2022/01/19 10:45:12;;;;;;;19.50;12.77;;;;;;;3.36;72.29;100721.75;5011417;28;20217;-74
2022/01/19 10:47:56;;;;;;;19.70;12.45;;;;;;;3.30;72.62;100717.53;5007420;28;20289;-75
2022/01/19 10:50:28;;;;;;;24.30;13.43;;;;;;;3.29;72.82;100716.69;5009461;28;20294;-74
2022/01/19 10:52:55;;;;;;;26.35;13.02;;;;;;;3.32;73.24;100711.44;5013298;28;20246;-74
2022/01/19 10:55:20;;;;;;;27.00;13.82;;;;;;;3.33;73.13;100705.34;5006350;28;20280;-74
2022/01/19 10:57:47;;;;;;;18.33;12.10;;;;;;;3.38;73.34;100696.63;5005394;28;20584;-74
2022/01/19 11:00:36;;;;;;;19.02;13.27;;;;;;;3.41;73.28;100694.84;5008898;28;20279;-74
2022/01/19 11:03:18;;;;;;;23.95;12.77;;;;;;;3.46;73.29;100681.78;5004968;28;20222;-74
2022/01/19 11:05:51;;;;;;;21.52;12.35;;;;;;;3.50;73.15;100681.69;5017244;28;20202;-76
2022/01/19 11:08:18;;;;;;;27.40;14.55;;;;;;;3.57;72.89;100677.25;5015725;28;20211;-75
2022/01/19 11:10:48;;;;;;;18.60;12.18;;;;;;;3.65;73.06;100664.97;5014885;28;20313;-75
2022/01/19 11:15:53;;;;;;;18.20;12.15;;;;;;;3.79;72.94;100666.47;5015248;28;20223;-76
2022/01/19 11:18:21;;;;;;;22.00;12.68;;;;;;;3.87;72.71;100661.97;5008717;28;20210;-74
2022/01/19 11:20:49;;;;;;;20.88;11.80;;;;;;;3.92;72.29;100678.34;5003637;28;20843;-74
2022/01/19 11:23:50;;;;;;;19.55;12.50;;;;;;;4.00;72.25;100676.44;5009047;28;20229;-74
2022/01/19 11:26:17;;;;;;;17.67;12.30;;;;;;;4.06;71.96;100681.53;4995015;28;20217;-75
2022/01/19 11:28:46;;;;;;;26.10;13.80;;;;;;;4.10;71.88;100674.50;5017176;28;20221;-75
2022/01/19 11:31:23;;;;;;;19.75;12.15;;;;;;;4.14;71.71;100676.19;5017577;28;20236;-77
2022/01/19 11:33:52;;;;;;;20.67;13.32;;;;;;;4.14;71.87;100666.63;5017079;28;20206;-78
2022/01/19 11:36:21;;;;;;;17.45;11.82;;;;;;;4.13;71.77;100674.44;5016219;28;20218;-75
2022/01/19 11:39:08;;;;;;;21.13;12.50;;;;;;;4.12;71.78;100673.59;5018856;28;20238;-75
2022/01/19 11:41:41;;;;;;;21.58;12.32;;;;;;;4.10;71.97;100675.34;5020119;28;20320;-75
2022/01/19 11:44:10;;;;;;;21.15;13.40;;;;;;;4.08;71.75;100673.69;5020134;28;20223;-78
2022/01/19 11:46:43;;;;;;;25.00;14.07;;;;;;;4.00;71.85;100668.66;5021571;28;20209;-75
2022/01/19 11:49:13;;;;;;;27.35;15.13;;;;;;;3.95;72.46;100662.69;5019526;28;20207;-75
2022/01/19 11:51:44;;;;;;;21.58;14.15;;;;;;;3.93;72.54;100670.50;5018386;28;20280;-79
2022/01/19 11:54:28;;;;;;;28.30;14.95;;;;;;;3.90;72.43;100659.31;5019696;28;20291;-74
2022/01/19 11:57:02;;;;;;;25.63;13.93;;;;;;;3.84;72.41;100652.50;5021894;28;20620;-74
2022/01/19 11:59:30;;;;;;;22.48;12.45;;;;;;;3.79;72.41;100641.31;5024029;28;20709;-74
2022/01/19 12:02:20;;;;;;;23.60;13.95;;;;;;;3.76;72.82;100636.19;5021704;28;20218;-74
2022/01/19 12:04:52;;;;;;;23.15;12.30;;;;;;;3.76;72.94;100626.66;5021725;28;20215;-75
2022/01/19 12:07:36;;;;;;;22.45;13.80;;;;;;;3.80;72.97;100627.44;5024369;28;20218;-74
2022/01/19 12:10:05;;;;;;;21.33;13.52;;;;;;;3.85;72.63;100619.56;5022646;28;20198;-74
2022/01/19 12:12:35;;;;;;;20.43;12.70;;;;;;;3.89;72.55;100621.19;4658742;28;10000534;-74
2022/01/19 12:15:06;;;;;;;25.70;14.57;;;;;;;3.94;72.61;100608.97;5023883;28;20206;-75
2022/01/19 12:17:54;;;;;;;26.42;14.98;;;;;;;4.03;72.73;100613.16;5023297;28;20291;-74
2022/01/19 12:20:46;;;;;;;21.23;13.13;;;;;;;4.09;72.16;100623.41;5026336;28;20229;-76
2022/01/19 12:23:44;;;;;;;20.80;13.00;;;;;;;4.09;71.93;100603.47;5020613;28;20226;-76
2022/01/19 12:26:10;;;;;;;21.48;12.13;;;;;;;4.10;72.09;100605.16;4989302;28;20703;-76
2022/01/19 12:28:54;;;;;;;21.63;12.90;;;;;;;4.13;72.23;100614.63;5005572;28;20206;-77
2022/01/19 12:31:22;;;;;;;21.70;14.23;;;;;;;4.19;72.08;100607.59;5024343;28;20490;-77
2022/01/19 12:34:03;;;;;;;23.58;14.10;;;;;;;4.21;71.63;100611.00;5024850;28;20194;-76
2022/01/19 12:36:55;;;;;;;19.15;13.05;;;;;;;4.23;71.56;100608.38;5023379;28;20201;-76
2022/01/19 12:39:27;;;;;;;18.60;10.77;;;;;;;4.30;71.52;100596.09;5026661;28;20221;-75
2022/01/19 12:42:18;;;;;;;17.55;12.32;;;;;;;4.36;71.44;100594.19;5025346;28;20240;-76
2022/01/19 12:44:52;;;;;;;20.52;12.95;;;;;;;4.38;71.25;100575.97;5024797;28;20305;-77
2022/01/19 12:47:29;;;;;;;19.67;12.82;;;;;;;4.35;71.20;100576.91;5023563;28;20606;-76
2022/01/19 12:50:07;;;;;;;19.02;12.07;;;;;;;4.31;71.31;100583.03;5021509;28;20195;-77
2022/01/19 12:52:34;;;;;;;21.08;13.38;;;;;;;4.27;71.42;100575.38;5023928;28;20211;-77
2022/01/19 12:55:18;;;;;;;26.92;13.95;;;;;;;4.28;71.57;100571.88;5027809;28;20581;-77